Time;durP1;ratioP1;P1;durP2;ratioP2;P2;SDS_P1;SDS_P2;PMS_P1;PMS_P2;Temp;Humidity;BMP_temperature;BMP_pressure;BME280_temperature;BME280_humidity;BME280_pressure;Samples;Min_cycle;Max_cycle;Signal;HPM_P1;HPM_P2
2023/03/31 00:01:35;;;;;;;9.23;2.60;;;;;;;11.26;91.85;100211.81;6189667;28;20259;-70
2023/03/31 00:04:58;;;;;;;7.03;3.17;;;;;;;11.26;91.33;100212.66;6204758;28;20619;-70
2023/03/31 00:08:20;;;;;;;10.10;3.20;;;;;;;11.20;91.91;100218.69;6202021;28;20233;-71
2023/03/31 00:11:42;;;;;;;7.80;3.43;;;;;;;11.21;91.85;100209.75;6202712;28;20233;-71
2023/03/31 00:15:04;;;;;;;9.00;2.10;;;;;;;11.23;91.59;100214.84;6151739;28;20232;-71
2023/03/31 00:18:25;;;;;;;6.20;4.47;;;;;;;11.26;90.96;100206.53;6198054;28;20514;-71
2023/03/31 00:21:49;;;;;;;3.03;2.60;;;;;;;11.20;90.81;100202.00;6202237;28;21753;-72
2023/03/31 00:25:10;;;;;;;8.87;2.20;;;;;;;11.19;90.50;100198.53;6202086;28;20229;-71
2023/03/31 00:28:33;;;;;;;8.37;3.70;;;;;;;11.22;90.47;100195.53;6186386;28;20255;-71
2023/03/31 00:31:55;;;;;;;6.00;3.67;;;;;;;11.18;89.82;100196.91;6185011;28;20272;-71
2023/03/31 00:35:17;;;;;;;6.27;2.27;;;;;;;11.09;90.58;100199.84;6196309;28;20566;-70
2023/03/31 00:38:38;;;;;;;7.20;2.53;;;;;;;10.97;91.92;100191.59;6167951;28;20233;-71
2023/03/31 00:41:58;;;;;;;7.63;4.77;;;;;;;10.98;92.16;100192.44;6179034;28;20236;-71
2023/03/31 00:45:29;;;;;;;3.63;3.33;;;;;;;10.95;91.77;100175.94;6197331;28;20522;-71
2023/03/31 00:48:56;;;;;;;11.17;4.10;;;;;;;11.00;91.11;100170.13;6181008;28;20233;-71
2023/03/31 00:52:21;;;;;;;5.63;3.57;;;;;;;10.98;91.18;100166.84;6182295;28;20572;-71
2023/03/31 00:55:48;;;;;;;14.77;4.67;;;;;;;11.06;89.65;100163.28;6198492;28;20237;-71
2023/03/31 00:59:12;;;;;;;8.53;3.10;;;;;;;11.10;89.80;100167.97;6185150;28;20221;-72
2023/03/31 01:02:40;;;;;;;8.97;2.67;;;;;;;11.11;88.96;100156.41;6189325;28;20316;-71
2023/03/31 01:06:04;;;;;;;15.23;3.17;;;;;;;11.14;89.17;100147.28;6189150;28;20244;-71
2023/03/31 01:09:29;;;;;;;4.40;3.37;;;;;;;11.17;88.00;100144.25;6191676;28;20263;-70
2023/03/31 01:12:54;;;;;;;3.93;2.13;;;;;;;11.22;87.37;100147.97;6191626;28;20237;-70
2023/03/31 01:16:14;;;;;;;16.77;3.37;;;;;;;11.23;87.44;100135.59;6183338;28;20636;-71
2023/03/31 01:19:59;;;;;;;7.27;2.97;;;;;;;11.25;87.41;100139.69;6193208;28;20328;-71
2023/03/31 01:23:34;;;;;;;7.57;3.97;;;;;;;11.28;86.83;100127.91;6193467;28;21700;-71
2023/03/31 01:27:21;;;;;;;7.97;3.63;;;;;;;11.28;87.12;100120.00;6205501;28;20723;-71
2023/03/31 01:31:31;;;;;;;9.10;3.53;;;;;;;11.31;86.43;100124.88;6201821;28;20225;-71
2023/03/31 01:35:18;;;;;;;4.70;2.67;;;;;;;11.31;86.64;100122.22;6198184;28;20256;-71
2023/03/31 01:38:57;;;;;;;5.47;2.77;;;;;;;11.31;86.55;100109.00;6197239;28;20221;-71
2023/03/31 01:42:29;;;;;;;6.67;2.57;;;;;;;11.33;86.58;100112.28;6203144;28;20303;-71
2023/03/31 01:45:57;;;;;;;5.93;2.93;;;;;;;11.27;87.21;100098.03;6207719;28;20236;-71
2023/03/31 01:49:24;;;;;;;3.90;2.17;;;;;;;11.14;87.70;100108.47;6180989;28;20241;-69
2023/03/31 01:52:51;;;;;;;10.20;3.20;;;;;;;11.07;88.10;100093.59;6197635;28;20237;-72
2023/03/31 01:56:20;;;;;;;9.80;3.33;;;;;;;11.03;88.22;100094.97;6205835;28;20619;-71
2023/03/31 01:59:49;;;;;;;3.43;2.47;;;;;;;10.99;88.38;100093.72;6165302;28;20232;-70
2023/03/31 02:03:16;;;;;;;2.73;1.50;;;;;;;11.00;88.50;100096.19;6196756;28;20324;-71
2023/03/31 02:06:43;;;;;;;5.53;3.50;;;;;;;10.99;88.58;100091.09;6199377;28;20624;-70
2023/03/31 02:10:07;;;;;;;6.07;2.70;;;;;;;10.97;88.84;100091.25;6195328;28;20232;-71
2023/03/31 02:13:30;;;;;;;5.07;2.40;;;;;;;10.99;88.93;100086.63;6199690;28;20233;-71
2023/03/31 02:16:57;;;;;;;4.43;2.67;;;;;;;11.02;88.92;100067.75;6200607;28;20304;-71
2023/03/31 02:20:21;;;;;;;7.07;4.03;;;;;;;10.95;89.24;100066.88;6209198;28;20233;-71
2023/03/31 02:23:44;;;;;;;5.37;2.93;;;;;;;11.01;89.08;100047.63;6198690;28;20248;-71
2023/03/31 02:27:14;;;;;;;9.30;2.83;;;;;;;10.93;89.41;100055.69;6206383;28;20237;-71
2023/03/31 02:30:45;;;;;;;4.63;3.37;;;;;;;10.92;89.95;100048.75;6204844;28;20237;-72
2023/03/31 02:34:08;;;;;;;4.27;2.33;;;;;;;10.88;90.21;100045.69;6180307;28;20241;-71
2023/03/31 02:37:30;;;;;;;5.90;2.87;;;;;;;10.82;90.17;100049.09;6198021;28;20233;-71
2023/03/31 02:40:51;;;;;;;8.43;3.47;;;;;;;10.77;90.54;100046.22;6195471;28;20319;-71
2023/03/31 02:44:12;;;;;;;6.30;2.07;;;;;;;10.75;91.00;100044.75;6194063;28;20229;-71
2023/03/31 02:47:34;;;;;;;5.77;3.33;;;;;;;10.76;91.15;100038.47;6193945;28;21221;-71
2023/03/31 02:51:43;;;;;;;4.47;2.30;;;;;;;10.73;91.19;100031.75;6186550;28;20260;-71
2023/03/31 02:55:36;;;;;;;7.40;3.00;;;;;;;10.71;91.56;100025.84;6179431;28;20233;-70
2023/03/31 02:59:26;;;;;;;4.67;3.17;;;;;;;10.69;91.70;100014.66;6192935;28;20595;-71
2023/03/31 03:02:58;;;;;;;10.70;3.10;;;;;;;10.70;91.82;100018.94;6194765;28;20224;-71
2023/03/31 03:06:36;;;;;;;6.77;2.80;;;;;;;10.66;91.94;100019.50;6193664;28;20225;-70
2023/03/31 03:10:20;;;;;;;4.53;2.67;;;;;;;10.70;91.93;100011.00;6181471;28;20245;-71
2023/03/31 03:13:47;;;;;;;3.27;2.87;;;;;;;10.70;91.96;100004.91;6195628;28;20232;-70
2023/03/31 03:17:11;;;;;;;3.80;2.87;;;;;;;10.67;91.91;100006.09;6184686;28;20241;-71
2023/03/31 03:20:34;;;;;;;4.77;3.93;;;;;;;10.62;92.26;100009.31;6208205;28;20631;-71
2023/03/31 03:23:57;;;;;;;3.90;1.77;;;;;;;10.61;92.48;99998.97;6180539;28;20229;-70
2023/03/31 03:27:21;;;;;;;3.67;3.37;;;;;;;10.69;92.25;99998.00;6193996;28;20225;-71
2023/03/31 03:30:42;;;;;;;7.00;3.40;;;;;;;10.70;92.01;99989.06;6201523;28;20248;-71
2023/03/31 03:34:02;;;;;;;4.67;2.77;;;;;;;10.67;92.30;99989.44;6177164;28;20237;-71
2023/03/31 03:37:24;;;;;;;6.20;2.67;;;;;;;10.68;92.30;99983.16;6191771;28;20292;-70
2023/03/31 03:40:46;;;;;;;4.57;2.40;;;;;;;10.66;92.07;99977.25;6201294;28;20232;-71
2023/03/31 03:44:07;;;;;;;4.77;2.20;;;;;;;10.57;92.63;99972.13;6195125;28;20229;-71
2023/03/31 03:47:28;;;;;;;4.47;2.60;;;;;;;10.65;92.46;99978.25;6194661;28;20312;-71
2023/03/31 03:50:49;;;;;;;3.43;2.57;;;;;;;10.59;92.88;99982.50;6201970;28;20241;-71
2023/03/31 03:54:10;;;;;;;4.00;3.70;;;;;;;10.57;93.01;99979.22;6207992;28;20245;-71
2023/03/31 03:57:32;;;;;;;4.30;3.90;;;;;;;10.62;92.77;99974.19;6204402;28;20241;-70
2023/03/31 04:00:53;;;;;;;2.50;2.30;;;;;;;10.62;92.87;99953.06;6204330;28;20253;-71
2023/03/31 04:04:14;;;;;;;4.70;3.00;;;;;;;10.67;92.70;99958.59;6200798;28;21502;-71
2023/03/31 04:07:35;;;;;;;6.57;3.60;;;;;;;10.68;92.74;99960.22;6208224;28;20233;-71
2023/03/31 04:10:56;;;;;;;5.13;2.70;;;;;;;10.73;92.38;99957.84;6204854;28;20241;-71
2023/03/31 04:14:19;;;;;;;3.23;2.93;;;;;;;10.73;92.58;99947.28;6204336;28;20221;-71
2023/03/31 04:17:40;;;;;;;6.33;3.00;;;;;;;10.72;92.17;99952.75;6187149;28;20233;-71
2023/03/31 04:21:03;;;;;;;9.97;3.10;;;;;;;10.70;92.48;99946.84;6202483;28;20245;-71
2023/03/31 04:24:29;;;;;;;3.23;2.90;;;;;;;10.75;92.33;99924.16;6198858;28;20339;-71
2023/03/31 04:27:54;;;;;;;6.03;3.47;;;;;;;10.74;92.46;99933.09;6206030;28;20217;-71
2023/03/31 04:31:23;;;;;;;4.33;3.90;;;;;;;10.62;92.43;99924.84;6199368;28;20232;-70
2023/03/31 04:34:45;;;;;;;4.67;3.17;;;;;;;10.62;92.86;99916.13;6206549;28;20308;-71
2023/03/31 04:38:07;;;;;;;9.30;3.97;;;;;;;10.67;92.87;99907.63;6192918;28;20234;-70
2023/03/31 04:41:28;;;;;;;7.67;4.03;;;;;;;10.66;92.52;99911.28;6202312;28;20785;-71
2023/03/31 04:44:49;;;;;;;5.50;3.73;;;;;;;10.62;92.49;99902.94;6188579;28;20302;-71
2023/03/31 04:48:12;;;;;;;6.53;3.73;;;;;;;10.62;92.88;99901.09;6191386;28;20237;-71
2023/03/31 04:51:33;;;;;;;4.83;4.07;;;;;;;10.69;92.69;99893.25;6200821;28;20312;-71
2023/03/31 04:54:54;;;;;;;6.90;3.83;;;;;;;10.77;92.35;99884.38;6460175;23;20229;-70
2023/03/31 04:58:15;;;;;;;8.40;5.13;;;;;;;10.72;92.21;99879.66;6178113;28;20228;-72
2023/03/31 05:01:36;;;;;;;7.13;3.13;;;;;;;10.80;92.20;99876.06;6184808;28;20237;-71
2023/03/31 05:04:58;;;;;;;6.23;3.50;;;;;;;10.77;91.70;99868.53;6173437;28;20240;-71
2023/03/31 05:08:19;;;;;;;5.40;3.83;;;;;;;10.79;91.55;99869.97;6175095;28;20241;-71
2023/03/31 05:11:40;;;;;;;8.93;4.07;;;;;;;10.82;91.40;99858.22;6198427;28;20323;-71
2023/03/31 05:15:01;;;;;;;7.70;4.80;;;;;;;10.80;91.08;99850.50;6199140;28;20236;-70
2023/03/31 05:18:22;;;;;;;11.00;4.23;;;;;;;10.81;91.31;99846.03;6213177;28;20228;-71
2023/03/31 05:21:45;;;;;;;5.07;3.23;;;;;;;10.87;91.17;99850.50;6221357;28;20216;-71
2023/03/31 05:25:10;;;;;;;7.93;4.23;;;;;;;10.83;91.32;99838.72;6167489;28;20221;-70
2023/03/31 05:28:31;;;;;;;9.47;4.17;;;;;;;10.86;91.02;99833.03;6208548;28;20638;-71
2023/03/31 05:31:53;;;;;;;6.17;3.00;;;;;;;10.87;91.02;99824.09;6209109;28;20236;-70
2023/03/31 05:35:13;;;;;;;7.33;3.43;;;;;;;10.88;90.94;99823.91;6164443;28;20232;-71
2023/03/31 05:38:35;;;;;;;10.13;3.97;;;;;;;10.90;90.76;99827.19;6189941;28;20244;-71
2023/03/31 05:41:56;;;;;;;5.73;4.47;;;;;;;10.82;90.88;99815.97;6211403;28;20733;-71
2023/03/31 05:45:17;;;;;;;15.07;4.73;;;;;;;10.83;90.83;99817.63;6202307;28;20230;-68
2023/03/31 05:48:38;;;;;;;10.13;5.27;;;;;;;10.87;90.53;99816.19;6200407;28;21445;-69
2023/03/31 05:51:59;;;;;;;8.80;2.77;;;;;;;10.82;90.68;99814.16;6216649;28;20590;-68
2023/03/31 05:55:22;;;;;;;7.30;4.53;;;;;;;10.85;90.56;99816.38;6209241;28;20614;-72
2023/03/31 05:58:43;;;;;;;8.47;3.50;;;;;;;10.88;90.36;99802.78;6193110;28;22108;-72
2023/03/31 06:02:04;;;;;;;5.80;3.30;;;;;;;10.89;90.37;99798.31;6218583;28;20584;-70
2023/03/31 06:05:26;;;;;;;6.00;3.00;;;;;;;10.87;89.88;99800.34;6223015;28;20339;-71
2023/03/31 06:08:48;;;;;;;6.67;2.80;;;;;;;10.86;90.06;99798.72;6198624;28;20238;-67
2023/03/31 06:12:10;;;;;;;2.90;2.60;;;;;;;10.91;90.25;99791.84;6218195;28;22427;-66
2023/03/31 06:15:31;;;;;;;3.57;2.73;;;;;;;10.95;90.00;99794.91;6218724;28;20236;-69
2023/03/31 06:18:52;;;;;;;13.53;4.53;;;;;;;10.90;89.47;99794.69;6199877;28;20271;-67
2023/03/31 06:22:13;;;;;;;4.43;4.10;;;;;;;10.93;89.59;99781.09;6209056;28;20237;-67
2023/03/31 06:25:34;;;;;;;5.37;3.53;;;;;;;11.03;89.52;99784.19;6225707;28;20240;-67
2023/03/31 06:28:56;;;;;;;7.13;4.07;;;;;;;11.05;89.55;99782.19;6213764;28;20229;-68
2023/03/31 06:32:16;;;;;;;5.07;3.23;;;;;;;11.16;89.09;99792.16;6210836;28;20240;-70
2023/03/31 06:35:39;;;;;;;8.97;4.17;;;;;;;11.05;88.75;99790.09;6214753;28;20531;-71
2023/03/31 06:39:00;;;;;;;3.37;2.60;;;;;;;11.17;88.64;99787.69;6206625;28;21155;-71
2023/03/31 06:42:21;;;;;;;5.57;4.57;;;;;;;11.09;88.25;99785.22;6200145;28;20228;-73
2023/03/31 06:45:43;;;;;;;3.07;2.87;;;;;;;11.13;88.67;99789.91;6207423;28;20673;-71
2023/03/31 06:49:03;;;;;;;7.30;3.20;;;;;;;11.22;88.31;99775.53;6200412;28;20237;-71
2023/03/31 06:52:25;;;;;;;3.17;2.27;;;;;;;11.15;88.20;99769.41;6212956;28;20237;-71
2023/03/31 06:55:45;;;;;;;11.77;3.00;;;;;;;11.16;88.02;99775.50;6175366;28;20233;-72
2023/03/31 06:59:06;;;;;;;8.47;4.13;;;;;;;11.27;87.85;99772.28;6183930;28;20244;-70
2023/03/31 07:02:29;;;;;;;6.10;3.27;;;;;;;11.35;87.54;99773.91;6199381;28;20475;-69
2023/03/31 07:05:51;;;;;;;4.77;4.20;;;;;;;11.35;87.39;99774.72;6213124;28;20605;-69
2023/03/31 07:09:11;;;;;;;5.73;3.30;;;;;;;11.50;86.71;99764.00;6207847;28;20249;-69
2023/03/31 07:12:32;;;;;;;3.70;3.20;;;;;;;11.33;87.10;99771.47;6192633;28;20267;-68
2023/03/31 07:15:54;;;;;;;8.17;4.80;;;;;;;11.31;87.78;99752.34;6220484;28;20554;-68
2023/03/31 07:19:16;;;;;;;8.73;4.53;;;;;;;11.63;86.79;99761.38;6200542;28;20452;-68
2023/03/31 07:22:37;;;;;;;10.83;5.53;;;;;;;11.60;86.71;99752.00;6215561;28;20562;-69
2023/03/31 07:26:01;;;;;;;8.53;5.10;;;;;;;11.84;85.84;99745.34;6204260;28;20260;-69
2023/03/31 07:29:22;;;;;;;5.03;3.00;;;;;;;11.90;85.85;99751.66;6215402;28;20228;-69
2023/03/31 07:32:45;;;;;;;6.97;4.73;;;;;;;11.69;85.68;99739.44;6208717;28;20717;-67
2023/03/31 07:36:09;;;;;;;8.50;3.47;;;;;;;11.48;87.12;99743.06;6188957;28;20247;-68
2023/03/31 07:39:30;;;;;;;7.07;3.43;;;;;;;11.48;87.08;99743.06;6215237;28;20229;-68
2023/03/31 07:42:51;;;;;;;9.00;4.17;;;;;;;11.37;87.61;99741.00;6210930;28;20237;-70
2023/03/31 07:46:17;;;;;;;7.43;5.47;;;;;;;11.33;87.85;99734.47;6207241;28;20551;-68
2023/03/31 07:49:39;;;;;;;8.13;3.20;;;;;;;11.47;87.97;99728.22;6211294;28;20528;-69
2023/03/31 07:53:01;;;;;;;10.27;4.50;;;;;;;10.99;91.61;99729.31;6208894;28;20213;-70
2023/03/31 07:56:24;;;;;;;4.37;3.97;;;;;;;10.91;91.88;99722.38;6218529;28;20229;-72
2023/03/31 07:59:46;;;;;;;5.33;3.10;;;;;;;10.86;92.74;99724.81;6210910;28;20323;-70
2023/03/31 08:03:06;;;;;;;7.43;2.63;;;;;;;10.82;92.51;99721.78;6210645;28;20235;-70
2023/03/31 08:06:28;;;;;;;5.53;3.00;;;;;;;10.79;93.22;99719.53;6220041;28;20248;-70
2023/03/31 08:09:51;;;;;;;3.00;2.33;;;;;;;10.88;93.45;99714.84;6186912;28;20252;-72
2023/03/31 08:13:11;;;;;;;4.37;2.80;;;;;;;11.02;93.09;99706.00;6198294;28;20513;-73
2023/03/31 08:16:32;;;;;;;4.93;2.50;;;;;;;10.95;92.43;99705.16;6197041;28;20315;-69
2023/03/31 08:19:53;;;;;;;5.27;2.97;;;;;;;11.02;92.61;99698.06;6198284;28;20485;-69
2023/03/31 08:23:14;;;;;;;6.37;4.07;;;;;;;11.15;93.28;99703.38;6198364;28;20225;-69
2023/03/31 08:26:36;;;;;;;4.40;3.97;;;;;;;11.15;92.42;99695.44;6220442;28;20620;-71
2023/03/31 08:29:57;;;;;;;6.73;3.67;;;;;;;11.02;92.55;99694.63;6184495;28;20607;-70
2023/03/31 08:33:18;;;;;;;3.77;3.33;;;;;;;10.98;93.04;99698.66;6210863;28;20244;-69
2023/03/31 08:36:40;;;;;;;3.90;3.40;;;;;;;11.06;93.28;99693.22;6224958;28;20232;-69
2023/03/31 08:40:03;;;;;;;6.30;3.53;;;;;;;11.25;93.30;99690.59;6213007;28;20229;-70
2023/03/31 08:43:32;;;;;;;5.17;2.50;;;;;;;11.37;92.66;99692.63;6212135;28;20221;-69
2023/03/31 08:46:56;;;;;;;7.97;3.70;;;;;;;11.53;92.29;99685.13;6224008;28;20252;-70
2023/03/31 08:50:23;;;;;;;3.20;2.20;;;;;;;11.39;92.14;99677.38;6222661;28;20224;-68
2023/03/31 08:53:51;;;;;;;2.90;2.57;;;;;;;11.10;93.29;99675.91;6200123;28;20241;-70
2023/03/31 08:57:17;;;;;;;4.53;2.77;;;;;;;11.00;93.85;99663.13;6214919;28;20231;-70
2023/03/31 09:00:49;;;;;;;9.57;2.37;;;;;;;11.00;96.37;99675.50;6221489;28;20225;-79
2023/03/31 09:04:26;;;;;;;5.87;1.90;;;;;;;11.16;93.75;99665.38;6173068;28;20602;-66
2023/03/31 09:07:58;;;;;;;3.53;2.23;;;;;;;11.08;93.88;99665.56;6214680;28;20314;-69
2023/03/31 09:11:29;;;;;;;2.63;2.43;;;;;;;11.15;93.99;99655.81;6218096;28;20236;-68
2023/03/31 09:14:57;;;;;;;4.67;3.10;;;;;;;11.34;93.33;99651.56;6191527;28;20275;-71
2023/03/31 09:18:28;;;;;;;3.47;1.47;;;;;;;11.19;94.38;99653.59;6205178;28;20507;-69
2023/03/31 09:21:52;;;;;;;3.73;2.43;;;;;;;11.40;93.64;99645.47;6224824;28;20244;-71
2023/03/31 09:25:18;;;;;;;2.63;2.43;;;;;;;11.63;92.57;99637.16;6201991;28;20500;-68
2023/03/31 09:28:40;;;;;;;4.63;2.40;;;;;;;11.28;93.28;99634.72;6201260;28;20241;-67
2023/03/31 09:32:02;;;;;;;1.87;1.77;;;;;;;11.40;93.04;99626.19;6221406;28;20541;-69
2023/03/31 09:35:26;;;;;;;2.37;2.07;;;;;;;11.55;93.01;99624.94;6225446;28;20224;-68
2023/03/31 09:38:47;;;;;;;3.47;1.87;;;;;;;11.66;92.73;99612.94;6172250;28;20249;-70
2023/03/31 09:42:12;;;;;;;4.60;2.47;;;;;;;11.80;92.38;99609.28;6220269;28;20225;-69
2023/03/31 09:45:33;;;;;;;3.67;2.93;;;;;;;11.90;91.99;99599.09;6220091;28;20484;-69
2023/03/31 09:49:01;;;;;;;4.37;3.10;;;;;;;11.68;92.69;99600.34;6216755;28;20302;-69
2023/03/31 09:52:29;;;;;;;3.33;1.83;;;;;;;11.70;92.92;99600.13;6222021;28;20236;-67
2023/03/31 09:55:53;;;;;;;2.57;2.40;;;;;;;11.69;92.82;99595.88;6209832;28;20251;-67
2023/03/31 09:59:16;;;;;;;6.30;2.10;;;;;;;11.37;93.63;99589.59;6206424;28;20252;-68
2023/03/31 10:02:40;;;;;;;2.20;2.07;;;;;;;11.64;93.63;99589.38;6197258;28;20241;-68
2023/03/31 10:06:01;;;;;;;4.83;2.80;;;;;;;11.64;93.65;99583.25;6199535;28;20502;-70
2023/03/31 10:09:26;;;;;;;2.20;1.60;;;;;;;11.74;93.36;99585.50;6215494;28;20228;-70
2023/03/31 10:12:51;;;;;;;4.23;2.87;;;;;;;11.93;92.17;99582.03;6191625;28;20538;-70
2023/03/31 10:16:14;;;;;;;2.50;2.13;;;;;;;12.22;91.59;99578.03;6221421;28;20232;-69
2023/03/31 10:19:37;;;;;;;4.50;2.23;;;;;;;12.21;91.04;99579.84;6220339;28;20228;-69
2023/03/31 10:23:03;;;;;;;6.20;1.50;;;;;;;11.89;92.26;99576.31;6218340;28;20237;-69
2023/03/31 10:26:27;;;;;;;2.23;2.03;;;;;;;11.78;93.11;99569.03;6211001;28;20634;-68
2023/03/31 10:29:51;;;;;;;3.10;1.60;;;;;;;11.88;92.56;99561.47;6183542;28;20240;-68
2023/03/31 10:33:16;;;;;;;2.97;2.33;;;;;;;12.11;92.75;99568.13;6215652;28;20286;-69
2023/03/31 10:36:38;;;;;;;3.40;1.97;;;;;;;12.19;91.36;99567.91;6223078;28;20237;-69
2023/03/31 10:40:03;;;;;;;5.37;2.67;;;;;;;12.73;92.33;99563.91;6219918;28;20236;-69
2023/03/31 10:43:30;;;;;;;5.03;2.80;;;;;;;12.67;89.36;99545.22;6217738;28;20236;-69
2023/03/31 10:46:52;;;;;;;2.27;2.07;;;;;;;12.52;89.79;99549.19;6213741;28;20677;-69
2023/03/31 10:50:15;;;;;;;2.60;1.60;;;;;;;12.64;89.55;99550.16;6183977;28;20712;-69
2023/03/31 10:53:41;;;;;;;2.83;2.63;;;;;;;12.37;90.35;99546.03;6204075;28;20258;-69
2023/03/31 10:57:05;;;;;;;4.27;2.93;;;;;;;12.26;90.86;99539.56;6212765;28;20323;-70
2023/03/31 11:00:31;;;;;;;2.97;1.67;;;;;;;12.24;90.95;99537.13;6215956;28;21002;-67
2023/03/31 11:04:04;;;;;;;3.20;2.03;;;;;;;12.33;90.85;99529.75;6208535;28;20233;-69
2023/03/31 11:07:38;;;;;;;7.00;1.80;;;;;;;12.26;91.09;99532.44;6229084;28;20236;-69
2023/03/31 11:11:12;;;;;;;1.80;1.47;;;;;;;12.46;90.40;99527.03;6223859;28;20244;-70
2023/03/31 11:14:45;;;;;;;2.30;1.97;;;;;;;12.49;89.82;99517.84;6227285;28;22782;-69
2023/03/31 11:18:36;;;;;;;2.47;1.73;;;;;;;12.27;90.96;99525.31;6222059;28;20320;-69
2023/03/31 11:22:05;;;;;;;1.40;1.10;;;;;;;12.00;91.76;99514.03;6236153;28;20240;-69
2023/03/31 11:25:35;;;;;;;5.33;2.23;;;;;;;12.08;91.37;99513.81;6237938;28;20555;-71
2023/03/31 11:29:03;;;;;;;2.00;1.57;;;;;;;11.81;92.02;99510.44;6224809;28;20224;-69
2023/03/31 11:32:33;;;;;;;1.43;1.20;;;;;;;11.80;92.86;99500.88;6217553;28;20528;-71
2023/03/31 11:36:07;;;;;;;1.60;1.50;;;;;;;11.92;91.83;99501.88;6228788;28;20264;-69
2023/03/31 11:39:40;;;;;;;3.83;1.50;;;;;;;11.63;92.78;99505.00;6225127;28;20224;-74
2023/03/31 11:43:07;;;;;;;5.17;2.10;;;;;;;11.78;92.61;99494.19;6227041;28;20244;-69
2023/03/31 11:46:35;;;;;;;2.00;1.53;;;;;;;11.84;92.27;99496.00;6222238;28;20630;-68
2023/03/31 11:49:59;;;;;;;2.60;1.50;;;;;;;11.88;92.57;99490.09;6193850;28;20248;-69
2023/03/31 11:53:28;;;;;;;2.67;1.50;;;;;;;11.89;91.91;99475.03;6192713;28;20631;-69
2023/03/31 11:56:51;;;;;;;3.90;1.93;;;;;;;11.63;93.27;99482.03;6216432;28;20375;-68
2023/03/31 12:00:17;;;;;;;3.97;1.70;;;;;;;11.54;94.28;99483.25;6206803;28;20755;-69
2023/03/31 12:03:44;;;;;;;3.83;1.20;;;;;;;11.51;95.00;99482.88;6203079;28;20548;-69
2023/03/31 12:07:16;;;;;;;2.70;1.30;;;;;;;11.53;94.58;99484.28;6216220;28;20240;-69
2023/03/31 12:10:45;;;;;;;1.43;0.87;;;;;;;11.28;96.54;99478.06;6215368;28;20228;-69
2023/03/31 12:14:17;;;;;;;1.37;1.27;;;;;;;11.15;97.11;99472.78;6191573;28;20233;-68
2023/03/31 12:17:40;;;;;;;2.20;2.07;;;;;;;11.28;96.55;99468.31;6200616;28;20532;-69
2023/03/31 12:21:04;;;;;;;2.67;1.30;;;;;;;11.17;97.01;99463.66;6210152;28;20516;-70
2023/03/31 12:24:25;;;;;;;3.73;2.20;;;;;;;11.28;96.92;99462.22;6190311;28;20685;-69
2023/03/31 12:27:50;;;;;;;4.90;1.43;;;;;;;11.07;97.66;99455.31;6210082;28;20248;-69
2023/03/31 12:31:19;;;;;;;2.63;1.47;;;;;;;11.28;97.95;99451.66;6216092;28;20256;-69
2023/03/31 12:34:48;;;;;;;5.20;2.07;;;;;;;11.18;96.92;99457.34;6203903;28;20700;-72
2023/03/31 12:38:21;;;;;;;2.50;2.23;;;;;;;11.08;97.79;99451.66;6190194;28;20240;-72
2023/03/31 12:42:03;;;;;;;1.57;1.37;;;;;;;11.20;97.20;99450.03;6219641;28;20240;-71
2023/03/31 12:45:28;;;;;;;2.73;2.30;;;;;;;11.18;97.55;99444.13;6225537;28;20352;-69
2023/03/31 12:49:05;;;;;;;1.87;1.77;;;;;;;11.37;97.06;99437.19;6196662;28;20244;-71
2023/03/31 12:52:36;;;;;;;2.87;1.90;;;;;;;11.40;96.13;99434.13;6205343;28;20228;-70
2023/03/31 12:55:58;;;;;;;3.17;2.13;;;;;;;11.41;96.62;99430.47;6214374;28;20312;-70
2023/03/31 12:59:34;;;;;;;4.13;2.10;;;;;;;11.46;96.34;99420.09;6193889;28;20237;-68
2023/03/31 13:03:29;;;;;;;2.40;2.20;;;;;;;11.69;95.20;99429.34;6202282;28;20225;-70
2023/03/31 13:06:53;;;;;;;3.13;1.77;;;;;;;11.80;94.36;99424.22;6229681;28;20609;-72
2023/03/31 13:10:30;;;;;;;2.20;2.03;;;;;;;12.23;93.77;99408.50;6197759;28;20233;-73
2023/03/31 13:14:00;;;;;;;2.87;2.40;;;;;;;12.18;92.92;99405.72;6192093;28;20530;-69
2023/03/31 13:17:24;;;;;;;1.57;1.47;;;;;;;12.20;92.28;99403.63;6210456;28;20611;-70
2023/03/31 13:20:45;;;;;;;1.60;1.50;;;;;;;12.27;92.55;99395.66;6204495;28;20232;-70
2023/03/31 13:24:08;;;;;;;3.40;2.80;;;;;;;12.33;92.09;99395.63;6218473;28;20641;-70
2023/03/31 13:27:32;;;;;;;6.93;2.10;;;;;;;12.53;92.05;99389.34;6216586;28;20260;-71
2023/03/31 13:31:00;;;;;;;3.03;1.97;;;;;;;12.97;91.95;99378.53;6219255;28;20228;-68
2023/03/31 13:34:21;;;;;;;3.30;2.57;;;;;;;12.94;90.23;99384.28;6207103;28;20283;-68
2023/03/31 13:38:02;;;;;;;1.77;1.33;;;;;;;13.17;90.86;99383.66;6209570;28;20233;-67
2023/03/31 13:41:42;;;;;;;1.20;1.13;;;;;;;13.08;90.48;99381.50;6218265;28;20232;-69
2023/03/31 13:45:22;;;;;;;2.17;1.87;;;;;;;13.22;88.73;99383.81;6192997;28;20228;-67
2023/03/31 13:48:56;;;;;;;1.47;1.37;;;;;;;13.49;87.22;99367.59;6204802;28;20229;-66
2023/03/31 13:52:28;;;;;;;1.47;1.37;;;;;;;13.05;87.51;99368.69;6223502;28;20228;-68
2023/03/31 13:56:05;;;;;;;2.63;1.40;;;;;;;13.59;87.25;99373.97;6230421;28;20232;-69
2023/03/31 13:59:58;;;;;;;2.13;1.67;;;;;;;13.26;86.83;99365.63;6184456;28;20611;-69
2023/03/31 14:03:30;;;;;;;2.33;1.43;;;;;;;13.03;87.14;99368.91;6207269;28;20245;-68
2023/03/31 14:06:56;;;;;;;1.30;1.27;;;;;;;13.06;87.33;99359.72;6220883;28;20259;-71
2023/03/31 14:10:28;;;;;;;1.63;1.53;;;;;;;13.19;84.02;99365.69;6213848;28;20228;-70
2023/03/31 14:14:00;;;;;;;3.23;2.40;;;;;;;13.62;82.86;99354.16;6208419;28;20228;-69
2023/03/31 14:17:26;;;;;;;1.57;1.10;;;;;;;13.45;80.84;99359.28;6223201;28;21100;-69
2023/03/31 14:21:02;;;;;;;2.10;1.37;;;;;;;13.45;82.51;99361.94;6216687;28;20225;-69
2023/03/31 14:24:32;;;;;;;2.63;1.40;;;;;;;13.29;81.32;99358.06;6220965;28;20232;-69
2023/03/31 14:28:04;;;;;;;2.50;1.20;;;;;;;13.38;82.44;99355.91;6225038;28;20239;-69
2023/03/31 14:31:33;;;;;;;2.97;2.00;;;;;;;13.26;82.74;99355.03;6229779;28;20220;-69
2023/03/31 14:35:12;;;;;;;6.93;2.83;;;;;;;13.37;82.95;99358.75;6204053;28;20228;-71
2023/03/31 14:38:34;;;;;;;1.60;1.43;;;;;;;13.17;82.96;99362.47;6220798;28;20484;-69
2023/03/31 14:41:56;;;;;;;2.00;1.43;;;;;;;12.84;84.08;99349.56;6228826;28;20225;-68
2023/03/31 14:45:23;;;;;;;2.83;1.43;;;;;;;12.49;82.81;99362.50;6231733;28;20269;-68
2023/03/31 14:48:46;;;;;;;2.63;1.80;;;;;;;12.58;84.85;99352.47;6208794;28;20225;-69
2023/03/31 14:52:16;;;;;;;3.73;2.43;;;;;;;12.82;84.01;99343.69;6233322;28;20573;-69
2023/03/31 14:55:37;;;;;;;6.27;4.20;;;;;;;13.15;82.93;99348.63;6225459;28;20224;-70
2023/03/31 14:58:58;;;;;;;8.87;3.53;;;;;;;13.30;80.94;99342.97;6210193;28;20233;-71
2023/03/31 15:02:28;;;;;;;3.23;2.00;;;;;;;13.54;80.84;99338.59;6224729;28;20229;-69
2023/03/31 15:05:51;;;;;;;2.43;2.23;;;;;;;13.51;81.05;99342.50;6233228;28;20281;-69
2023/03/31 15:09:18;;;;;;;2.67;1.93;;;;;;;13.43;81.12;99341.97;6219249;28;20312;-69
2023/03/31 15:12:40;;;;;;;1.57;1.50;;;;;;;13.19;81.79;99333.09;6223560;28;20561;-69
2023/03/31 15:16:19;;;;;;;2.83;1.60;;;;;;;12.61;82.73;99336.97;6229045;28;20236;-69
2023/03/31 15:19:40;;;;;;;1.30;1.20;;;;;;;12.93;82.82;99336.81;6191855;28;20293;-68
2023/03/31 15:23:04;;;;;;;1.67;1.57;;;;;;;12.86;82.63;99338.75;6200738;28;20221;-68
2023/03/31 15:26:30;;;;;;;1.43;1.30;;;;;;;12.89;82.24;99340.94;6223760;28;20233;-70
2023/03/31 15:29:54;;;;;;;1.13;0.73;;;;;;;13.06;81.25;99338.53;6216778;28;20229;-69
2023/03/31 15:33:21;;;;;;;0.80;0.80;;;;;;;12.65;80.37;99343.41;6207081;28;20237;-69
2023/03/31 15:36:42;;;;;;;0.80;0.67;;;;;;;12.56;80.89;99333.34;6224730;28;20508;-68
2023/03/31 15:40:06;;;;;;;0.60;0.60;;;;;;;12.52;81.32;99340.09;6205304;28;20224;-69
2023/03/31 15:43:31;;;;;;;1.63;1.47;;;;;;;12.63;81.25;99340.22;6202057;28;20237;-69
2023/03/31 15:46:59;;;;;;;1.67;0.80;;;;;;;12.59;81.59;99330.25;6222558;28;20225;-68
2023/03/31 15:50:21;;;;;;;2.93;1.50;;;;;;;12.54;81.69;99338.84;6222306;28;20243;-68
2023/03/31 15:53:45;;;;;;;1.10;1.00;;;;;;;12.76;81.44;99336.59;6218859;28;20224;-69
2023/03/31 15:57:08;;;;;;;4.40;1.57;;;;;;;12.69;81.51;99338.50;6229050;28;20244;-69
2023/03/31 16:00:46;;;;;;;1.77;1.67;;;;;;;12.76;81.28;99335.78;6229272;28;20232;-69
2023/03/31 16:04:10;;;;;;;2.57;1.17;;;;;;;12.61;81.50;99336.16;6179469;28;20253;-69
2023/03/31 16:07:33;;;;;;;0.97;0.93;;;;;;;12.58;81.71;99345.34;6217440;28;20236;-70